sensor_id;sensor_type;location;lat;lon;timestamp;temperature;humidity
80779;SHT30;70170;47.856;10.956;2023-08-06T00:02:15;12.19;98.41
80779;SHT30;70170;47.856;10.956;2023-08-06T00:04:41;12.19;98.83
80779;SHT30;70170;47.856;10.956;2023-08-06T00:07:06;12.12;99.13
80779;SHT30;70170;47.856;10.956;2023-08-06T00:09:31;12.06;99.83
80779;SHT30;70170;47.856;10.956;2023-08-06T00:11:57;12.01;99.99
80779;SHT30;70170;47.856;10.956;2023-08-06T00:14:22;11.99;99.99
80779;SHT30;70170;47.856;10.956;2023-08-06T00:16:47;11.97;99.99
80779;SHT30;70170;47.856;10.956;2023-08-06T00:19:24;11.94;99.99
80779;SHT30;70170;47.856;10.956;2023-08-06T00:21:50;11.97;99.99
80779;SHT30;70170;47.856;10.956;2023-08-06T00:24:15;11.92;99.99
80779;SHT30;70170;47.856;10.956;2023-08-06T00:26:40;11.89;99.99
80779;SHT30;70170;47.856;10.956;2023-08-06T00:29:05;11.87;99.99
80779;SHT30;70170;47.856;10.956;2023-08-06T00:31:31;11.84;99.99
80779;SHT30;70170;47.856;10.956;2023-08-06T00:33:56;11.82;99.99
80779;SHT30;70170;47.856;10.956;2023-08-06T00:36:21;11.81;99.99
80779;SHT30;70170;47.856;10.956;2023-08-06T00:38:47;11.77;99.99
80779;SHT30;70170;47.856;10.956;2023-08-06T00:41:12;11.74;99.99
80779;SHT30;70170;47.856;10.956;2023-08-06T00:43:37;11.69;99.99
80779;SHT30;70170;47.856;10.956;2023-08-06T00:46:02;11.69;99.99
80779;SHT30;70170;47.856;10.956;2023-08-06T00:48:28;11.66;99.99
80779;SHT30;70170;47.856;10.956;2023-08-06T00:50:53;11.67;99.99
80779;SHT30;70170;47.856;10.956;2023-08-06T00:53:19;11.64;99.99
80779;SHT30;70170;47.856;10.956;2023-08-06T00:55:45;11.63;99.99
80779;SHT30;70170;47.856;10.956;2023-08-06T00:58:10;11.69;99.99
80779;SHT30;70170;47.856;10.956;2023-08-06T01:00:36;11.64;99.99
80779;SHT30;70170;47.856;10.956;2023-08-06T01:03:01;11.69;99.99
80779;SHT30;70170;47.856;10.956;2023-08-06T01:05:26;11.64;99.99
80779;SHT30;70170;47.856;10.956;2023-08-06T01:14:08;11.61;99.99
80779;SHT30;70170;47.856;10.956;2023-08-06T01:16:35;11.61;99.99
80779;SHT30;70170;47.856;10.956;2023-08-06T01:19:02;11.61;99.99
80779;SHT30;70170;47.856;10.956;2023-08-06T01:21:27;11.63;99.99
80779;SHT30;70170;47.856;10.956;2023-08-06T01:23:52;11.63;99.99
80779;SHT30;70170;47.856;10.956;2023-08-06T01:26:33;11.63;99.99
80779;SHT30;70170;47.856;10.956;2023-08-06T01:29:10;11.61;99.99
80779;SHT30;70170;47.856;10.956;2023-08-06T01:31:38;11.57;99.99
80779;SHT30;70170;47.856;10.956;2023-08-06T01:34:13;11.59;99.99
80779;SHT30;70170;47.856;10.956;2023-08-06T01:36:42;11.56;99.99
80779;SHT30;70170;47.856;10.956;2023-08-06T01:39:07;11.61;99.99
80779;SHT30;70170;47.856;10.956;2023-08-06T01:41:32;11.64;99.99
80779;SHT30;70170;47.856;10.956;2023-08-06T01:43:58;11.59;99.99
80779;SHT30;70170;47.856;10.956;2023-08-06T01:46:23;11.57;99.99
80779;SHT30;70170;47.856;10.956;2023-08-06T01:48:48;11.52;99.99
80779;SHT30;70170;47.856;10.956;2023-08-06T01:51:13;11.53;99.99
80779;SHT30;70170;47.856;10.956;2023-08-06T01:53:39;11.56;99.99
80779;SHT30;70170;47.856;10.956;2023-08-06T01:56:04;11.54;99.99
80779;SHT30;70170;47.856;10.956;2023-08-06T01:58:29;11.46;99.99
80779;SHT30;70170;47.856;10.956;2023-08-06T02:00:55;11.44;99.99
80779;SHT30;70170;47.856;10.956;2023-08-06T02:03:20;11.52;99.99
80779;SHT30;70170;47.856;10.956;2023-08-06T02:05:45;11.49;99.99
80779;SHT30;70170;47.856;10.956;2023-08-06T02:08:11;11.43;99.99
80779;SHT30;70170;47.856;10.956;2023-08-06T02:10:36;11.36;99.99
80779;SHT30;70170;47.856;10.956;2023-08-06T02:13:01;11.20;99.99
80779;SHT30;70170;47.856;10.956;2023-08-06T02:15:27;11.16;99.99
80779;SHT30;70170;47.856;10.956;2023-08-06T02:17:52;11.18;99.99
80779;SHT30;70170;47.856;10.956;2023-08-06T02:20:17;11.11;99.99
80779;SHT30;70170;47.856;10.956;2023-08-06T02:22:43;11.11;99.99
80779;SHT30;70170;47.856;10.956;2023-08-06T02:25:08;11.16;99.99
80779;SHT30;70170;47.856;10.956;2023-08-06T02:27:33;11.19;99.99
80779;SHT30;70170;47.856;10.956;2023-08-06T02:29:59;11.20;99.99
80779;SHT30;70170;47.856;10.956;2023-08-06T02:32:24;11.23;99.99
80779;SHT30;70170;47.856;10.956;2023-08-06T02:34:49;11.20;99.99
80779;SHT30;70170;47.856;10.956;2023-08-06T02:37:15;11.22;99.99
80779;SHT30;70170;47.856;10.956;2023-08-06T02:39:40;11.23;99.99
80779;SHT30;70170;47.856;10.956;2023-08-06T02:42:06;11.26;99.99
80779;SHT30;70170;47.856;10.956;2023-08-06T02:44:32;11.30;99.99
80779;SHT30;70170;47.856;10.956;2023-08-06T02:46:58;11.30;99.99
80779;SHT30;70170;47.856;10.956;2023-08-06T02:49:24;11.36;99.99
80779;SHT30;70170;47.856;10.956;2023-08-06T02:51:49;11.43;99.99
80779;SHT30;70170;47.856;10.956;2023-08-06T02:54:14;11.36;99.99
80779;SHT30;70170;47.856;10.956;2023-08-06T02:56:43;11.29;99.99
80779;SHT30;70170;47.856;10.956;2023-08-06T02:59:09;11.22;99.99
80779;SHT30;70170;47.856;10.956;2023-08-06T03:01:34;11.16;99.99
80779;SHT30;70170;47.856;10.956;2023-08-06T03:04:01;11.22;99.99
80779;SHT30;70170;47.856;10.956;2023-08-06T03:06:26;11.14;99.99
80779;SHT30;70170;47.856;10.956;2023-08-06T03:08:51;11.11;99.99
80779;SHT30;70170;47.856;10.956;2023-08-06T03:11:17;11.08;99.99
80779;SHT30;70170;47.856;10.956;2023-08-06T03:13:42;11.09;99.99
80779;SHT30;70170;47.856;10.956;2023-08-06T03:16:07;10.97;99.99
80779;SHT30;70170;47.856;10.956;2023-08-06T03:18:32;10.95;99.99
80779;SHT30;70170;47.856;10.956;2023-08-06T03:21:00;10.94;99.99
80779;SHT30;70170;47.856;10.956;2023-08-06T03:23:25;11.01;99.99
80779;SHT30;70170;47.856;10.956;2023-08-06T03:25:51;11.06;99.99
80779;SHT30;70170;47.856;10.956;2023-08-06T03:28:16;11.05;99.99
80779;SHT30;70170;47.856;10.956;2023-08-06T03:30:41;11.04;99.99
80779;SHT30;70170;47.856;10.956;2023-08-06T03:33:07;10.99;99.99
80779;SHT30;70170;47.856;10.956;2023-08-06T03:35:32;10.95;99.99
80779;SHT30;70170;47.856;10.956;2023-08-06T03:37:57;11.01;99.99
80779;SHT30;70170;47.856;10.956;2023-08-06T03:40:23;11.09;99.99
80779;SHT30;70170;47.856;10.956;2023-08-06T03:42:48;11.18;99.99
80779;SHT30;70170;47.856;10.956;2023-08-06T03:45:13;11.25;99.99
80779;SHT30;70170;47.856;10.956;2023-08-06T03:47:38;11.20;99.99
80779;SHT30;70170;47.856;10.956;2023-08-06T03:50:04;11.12;99.99
80779;SHT30;70170;47.856;10.956;2023-08-06T03:52:29;11.08;99.99
80779;SHT30;70170;47.856;10.956;2023-08-06T03:54:55;11.05;99.99
80779;SHT30;70170;47.856;10.956;2023-08-06T03:57:20;10.98;99.99
80779;SHT30;70170;47.856;10.956;2023-08-06T03:59:45;10.89;99.99
80779;SHT30;70170;47.856;10.956;2023-08-06T04:02:10;10.91;99.99
80779;SHT30;70170;47.856;10.956;2023-08-06T04:04:36;10.87;99.99
80779;SHT30;70170;47.856;10.956;2023-08-06T04:07:01;10.97;99.99
80779;SHT30;70170;47.856;10.956;2023-08-06T04:09:28;11.18;99.99
80779;SHT30;70170;47.856;10.956;2023-08-06T04:11:53;11.25;99.66
80779;SHT30;70170;47.856;10.956;2023-08-06T04:14:19;11.25;99.16
80779;SHT30;70170;47.856;10.956;2023-08-06T04:16:44;11.16;99.42
80779;SHT30;70170;47.856;10.956;2023-08-06T04:19:09;11.12;99.45
80779;SHT30;70170;47.856;10.956;2023-08-06T04:21:35;11.02;99.74
80779;SHT30;70170;47.856;10.956;2023-08-06T04:24:00;10.99;99.65
80779;SHT30;70170;47.856;10.956;2023-08-06T04:26:25;11.01;99.62
80779;SHT30;70170;47.856;10.956;2023-08-06T04:28:51;10.97;99.74
80779;SHT30;70170;47.856;10.956;2023-08-06T04:31:16;10.91;99.97
80779;SHT30;70170;47.856;10.956;2023-08-06T04:33:42;10.95;99.97
80779;SHT30;70170;47.856;10.956;2023-08-06T04:36:07;10.85;99.99
80779;SHT30;70170;47.856;10.956;2023-08-06T04:38:32;10.98;99.82
80779;SHT30;70170;47.856;10.956;2023-08-06T04:40:58;11.05;99.54
80779;SHT30;70170;47.856;10.956;2023-08-06T04:43:23;11.06;99.58
80779;SHT30;70170;47.856;10.956;2023-08-06T04:45:50;11.18;98.64
80779;SHT30;70170;47.856;10.956;2023-08-06T04:48:16;11.15;98.77
80779;SHT30;70170;47.856;10.956;2023-08-06T04:50:46;11.16;98.63
80779;SHT30;70170;47.856;10.956;2023-08-06T04:53:11;11.12;98.54
80779;SHT30;70170;47.856;10.956;2023-08-06T04:55:36;11.14;98.16
80779;SHT30;70170;47.856;10.956;2023-08-06T04:58:02;11.22;97.87
80779;SHT30;70170;47.856;10.956;2023-08-06T05:00:27;11.25;97.55
80779;SHT30;70170;47.856;10.956;2023-08-06T05:02:52;11.66;96.20
80779;SHT30;70170;47.856;10.956;2023-08-06T05:05:18;11.74;96.01
80779;SHT30;70170;47.856;10.956;2023-08-06T05:07:47;11.81;95.80
80779;SHT30;70170;47.856;10.956;2023-08-06T05:10:13;12.02;95.21
80779;SHT30;70170;47.856;10.956;2023-08-06T05:12:38;12.30;94.53
80779;SHT30;70170;47.856;10.956;2023-08-06T05:15:04;12.92;92.08
80779;SHT30;70170;47.856;10.956;2023-08-06T05:17:29;13.22;90.85
80779;SHT30;70170;47.856;10.956;2023-08-06T05:19:54;13.08;91.21
80779;SHT30;70170;47.856;10.956;2023-08-06T05:22:20;12.99;91.62
80779;SHT30;70170;47.856;10.956;2023-08-06T05:24:45;12.97;90.93
80779;SHT30;70170;47.856;10.956;2023-08-06T05:27:10;13.15;90.35
80779;SHT30;70170;47.856;10.956;2023-08-06T05:29:36;13.18;89.86
80779;SHT30;70170;47.856;10.956;2023-08-06T05:32:01;13.23;89.64
80779;SHT30;70170;47.856;10.956;2023-08-06T05:34:26;13.40;88.50
80779;SHT30;70170;47.856;10.956;2023-08-06T05:36:52;13.46;88.79
80779;SHT30;70170;47.856;10.956;2023-08-06T05:39:18;13.44;89.38
80779;SHT30;70170;47.856;10.956;2023-08-06T05:41:43;13.64;87.98
80779;SHT30;70170;47.856;10.956;2023-08-06T05:44:08;13.52;87.96
80779;SHT30;70170;47.856;10.956;2023-08-06T05:46:33;13.40;87.34
80779;SHT30;70170;47.856;10.956;2023-08-06T05:48:59;13.66;86.52
80779;SHT30;70170;47.856;10.956;2023-08-06T05:51:26;13.91;86.77
80779;SHT30;70170;47.856;10.956;2023-08-06T05:53:51;14.50;83.91
80779;SHT30;70170;47.856;10.956;2023-08-06T05:56:16;14.85;82.81
80779;SHT30;70170;47.856;10.956;2023-08-06T05:58:42;15.04;82.12
80779;SHT30;70170;47.856;10.956;2023-08-06T06:01:07;15.26;81.76
80779;SHT30;70170;47.856;10.956;2023-08-06T06:03:32;15.52;79.66
80779;SHT30;70170;47.856;10.956;2023-08-06T06:05:59;15.77;79.53
80779;SHT30;70170;47.856;10.956;2023-08-06T06:08:25;15.98;79.63
80779;SHT30;70170;47.856;10.956;2023-08-06T06:10:51;16.25;78.44
80779;SHT30;70170;47.856;10.956;2023-08-06T06:13:16;16.51;77.87
80779;SHT30;70170;47.856;10.956;2023-08-06T06:15:41;16.24;77.70
80779;SHT30;70170;47.856;10.956;2023-08-06T06:18:07;16.04;79.37
80779;SHT30;70170;47.856;10.956;2023-08-06T06:20:32;15.57;81.65
80779;SHT30;70170;47.856;10.956;2023-08-06T06:22:58;14.80;82.87
80779;SHT30;70170;47.856;10.956;2023-08-06T06:25:23;14.12;86.19
80779;SHT30;70170;47.856;10.956;2023-08-06T06:27:48;13.69;90.76
80779;SHT30;70170;47.856;10.956;2023-08-06T06:30:14;13.20;91.94
80779;SHT30;70170;47.856;10.956;2023-08-06T06:32:48;12.99;92.93
80779;SHT30;70170;47.856;10.956;2023-08-06T06:35:14;12.76;92.37
80779;SHT30;70170;47.856;10.956;2023-08-06T06:37:39;12.74;93.82
80779;SHT30;70170;47.856;10.956;2023-08-06T06:40:05;12.71;93.97
80779;SHT30;70170;47.856;10.956;2023-08-06T06:42:30;12.59;94.09
80779;SHT30;70170;47.856;10.956;2023-08-06T06:44:56;12.50;94.82
80779;SHT30;70170;47.856;10.956;2023-08-06T06:47:21;12.44;95.00
80779;SHT30;70170;47.856;10.956;2023-08-06T06:49:46;12.44;96.13
80779;SHT30;70170;47.856;10.956;2023-08-06T06:52:11;12.49;96.62
80779;SHT30;70170;47.856;10.956;2023-08-06T06:54:37;12.56;95.81
80779;SHT30;70170;47.856;10.956;2023-08-06T06:57:02;12.57;95.98
80779;SHT30;70170;47.856;10.956;2023-08-06T06:59:28;12.60;94.97
80779;SHT30;70170;47.856;10.956;2023-08-06T07:01:53;12.65;95.97
80779;SHT30;70170;47.856;10.956;2023-08-06T07:04:18;12.65;96.08
80779;SHT30;70170;47.856;10.956;2023-08-06T07:06:44;12.73;94.81
80779;SHT30;70170;47.856;10.956;2023-08-06T07:09:09;13.14;93.27
80779;SHT30;70170;47.856;10.956;2023-08-06T07:11:34;14.01;90.12
80779;SHT30;70170;47.856;10.956;2023-08-06T07:13:59;14.12;88.99
80779;SHT30;70170;47.856;10.956;2023-08-06T07:16:25;14.15;87.57
80779;SHT30;70170;47.856;10.956;2023-08-06T07:18:51;14.11;87.60
80779;SHT30;70170;47.856;10.956;2023-08-06T07:21:18;14.22;87.55
80779;SHT30;70170;47.856;10.956;2023-08-06T07:23:43;14.18;87.98
80779;SHT30;70170;47.856;10.956;2023-08-06T07:26:08;14.21;86.89
80779;SHT30;70170;47.856;10.956;2023-08-06T07:28:34;14.02;86.79
80779;SHT30;70170;47.856;10.956;2023-08-06T07:31:00;14.36;87.17
80779;SHT30;70170;47.856;10.956;2023-08-06T07:33:25;14.53;85.43
80779;SHT30;70170;47.856;10.956;2023-08-06T07:35:50;14.00;86.32
80779;SHT30;70170;47.856;10.956;2023-08-06T07:38:15;13.84;86.53
80779;SHT30;70170;47.856;10.956;2023-08-06T07:40:42;14.28;85.49
80779;SHT30;70170;47.856;10.956;2023-08-06T07:43:07;14.92;83.03
80779;SHT30;70170;47.856;10.956;2023-08-06T07:45:35;15.64;81.57
80779;SHT30;70170;47.856;10.956;2023-08-06T07:48:01;16.41;80.35
80779;SHT30;70170;47.856;10.956;2023-08-06T07:50:27;16.45;77.04
80779;SHT30;70170;47.856;10.956;2023-08-06T07:52:52;16.63;78.16
80779;SHT30;70170;47.856;10.956;2023-08-06T07:55:18;16.69;77.62
80779;SHT30;70170;47.856;10.956;2023-08-06T07:57:43;16.28;76.79
80779;SHT30;70170;47.856;10.956;2023-08-06T08:00:08;16.04;77.02
80779;SHT30;70170;47.856;10.956;2023-08-06T08:02:34;16.69;76.55
80779;SHT30;70170;47.856;10.956;2023-08-06T08:05:00;16.29;75.56
80779;SHT30;70170;47.856;10.956;2023-08-06T08:07:25;16.39;75.30
80779;SHT30;70170;47.856;10.956;2023-08-06T08:09:53;15.96;76.56
80779;SHT30;70170;47.856;10.956;2023-08-06T08:12:18;15.49;76.51
80779;SHT30;70170;47.856;10.956;2023-08-06T08:14:43;15.15;77.68
80779;SHT30;70170;47.856;10.956;2023-08-06T08:17:10;15.08;78.66
80779;SHT30;70170;47.856;10.956;2023-08-06T08:19:36;14.81;78.44
80779;SHT30;70170;47.856;10.956;2023-08-06T08:22:02;15.04;79.12
80779;SHT30;70170;47.856;10.956;2023-08-06T08:24:28;15.22;78.59
80779;SHT30;70170;47.856;10.956;2023-08-06T08:26:55;15.17;79.25
80779;SHT30;70170;47.856;10.956;2023-08-06T08:29:21;15.73;77.91
80779;SHT30;70170;47.856;10.956;2023-08-06T08:31:46;15.77;78.33
80779;SHT30;70170;47.856;10.956;2023-08-06T08:34:14;15.45;78.92
80779;SHT30;70170;47.856;10.956;2023-08-06T08:36:40;14.77;79.53
80779;SHT30;70170;47.856;10.956;2023-08-06T08:39:05;14.33;80.27
80779;SHT30;70170;47.856;10.956;2023-08-06T08:41:31;14.43;80.97
80779;SHT30;70170;47.856;10.956;2023-08-06T08:43:58;14.56;80.53
80779;SHT30;70170;47.856;10.956;2023-08-06T08:46:24;14.66;81.05
80779;SHT30;70170;47.856;10.956;2023-08-06T08:48:51;14.35;80.40
80779;SHT30;70170;47.856;10.956;2023-08-06T08:51:16;14.18;81.33
80779;SHT30;70170;47.856;10.956;2023-08-06T08:53:44;14.32;81.09
80779;SHT30;70170;47.856;10.956;2023-08-06T08:56:11;14.29;80.88
80779;SHT30;70170;47.856;10.956;2023-08-06T08:58:37;13.85;84.86
80779;SHT30;70170;47.856;10.956;2023-08-06T09:01:03;14.04;83.68
80779;SHT30;70170;47.856;10.956;2023-08-06T09:03:29;14.66;81.11
80779;SHT30;70170;47.856;10.956;2023-08-06T09:05:56;15.38;79.87
80779;SHT30;70170;47.856;10.956;2023-08-06T09:08:27;15.87;77.52
80779;SHT30;70170;47.856;10.956;2023-08-06T09:10:55;15.39;78.42
80779;SHT30;70170;47.856;10.956;2023-08-06T09:13:21;14.57;80.50
80779;SHT30;70170;47.856;10.956;2023-08-06T09:15:48;13.98;85.23
80779;SHT30;70170;47.856;10.956;2023-08-06T09:18:15;13.43;87.90
80779;SHT30;70170;47.856;10.956;2023-08-06T09:20:49;13.01;92.58
80779;SHT30;70170;47.856;10.956;2023-08-06T09:23:15;12.91;92.00
80779;SHT30;70170;47.856;10.956;2023-08-06T09:25:40;12.81;91.63
80779;SHT30;70170;47.856;10.956;2023-08-06T09:28:06;12.97;90.78
80779;SHT30;70170;47.856;10.956;2023-08-06T09:30:33;13.15;89.98
80779;SHT30;70170;47.856;10.956;2023-08-06T09:32:59;13.33;88.91
80779;SHT30;70170;47.856;10.956;2023-08-06T09:35:28;13.47;88.18
80779;SHT30;70170;47.856;10.956;2023-08-06T09:37:54;13.59;87.07
80779;SHT30;70170;47.856;10.956;2023-08-06T09:42:55;13.42;87.75
80779;SHT30;70170;47.856;10.956;2023-08-06T09:45:21;13.02;90.93
80779;SHT30;70170;47.856;10.956;2023-08-06T09:47:48;12.61;93.47
80779;SHT30;70170;47.856;10.956;2023-08-06T09:50:20;12.43;94.06
80779;SHT30;70170;47.856;10.956;2023-08-06T09:52:50;12.42;95.08
80779;SHT30;70170;47.856;10.956;2023-08-06T09:55:15;12.47;95.81
80779;SHT30;70170;47.856;10.956;2023-08-06T09:57:42;12.46;95.47
80779;SHT30;70170;47.856;10.956;2023-08-06T10:00:11;12.46;95.18
80779;SHT30;70170;47.856;10.956;2023-08-06T10:02:38;12.63;94.75
80779;SHT30;70170;47.856;10.956;2023-08-06T10:05:04;12.85;92.84
80779;SHT30;70170;47.856;10.956;2023-08-06T10:07:30;13.12;92.60
80779;SHT30;70170;47.856;10.956;2023-08-06T10:09:56;13.05;92.76
80779;SHT30;70170;47.856;10.956;2023-08-06T10:12:22;12.99;93.20
80779;SHT30;70170;47.856;10.956;2023-08-06T10:14:51;13.05;92.77
80779;SHT30;70170;47.856;10.956;2023-08-06T10:17:18;13.16;91.80
80779;SHT30;70170;47.856;10.956;2023-08-06T10:19:44;13.02;90.99
80779;SHT30;70170;47.856;10.956;2023-08-06T10:24:55;12.71;92.88
80779;SHT30;70170;47.856;10.956;2023-08-06T10:27:33;12.68;92.34
80779;SHT30;70170;47.856;10.956;2023-08-06T10:30:21;12.61;91.92
80779;SHT30;70170;47.856;10.956;2023-08-06T10:32:48;12.63;93.92
80779;SHT30;70170;47.856;10.956;2023-08-06T10:35:37;12.53;94.97
80779;SHT30;70170;47.856;10.956;2023-08-06T10:38:09;12.40;95.91
80779;SHT30;70170;47.856;10.956;2023-08-06T10:40:36;12.30;97.25
80779;SHT30;70170;47.856;10.956;2023-08-06T10:43:03;12.19;98.10
80779;SHT30;70170;47.856;10.956;2023-08-06T10:45:28;11.92;97.85
80779;SHT30;70170;47.856;10.956;2023-08-06T10:47:56;11.70;98.29
80779;SHT30;70170;47.856;10.956;2023-08-06T10:50:22;11.49;99.99
80779;SHT30;70170;47.856;10.956;2023-08-06T10:52:48;11.36;99.99
80779;SHT30;70170;47.856;10.956;2023-08-06T10:55:23;11.33;99.99
80779;SHT30;70170;47.856;10.956;2023-08-06T10:57:49;11.50;99.99
80779;SHT30;70170;47.856;10.956;2023-08-06T11:00:14;11.61;99.99
80779;SHT30;70170;47.856;10.956;2023-08-06T11:02:39;11.66;98.28
80779;SHT30;70170;47.856;10.956;2023-08-06T11:05:08;11.81;98.98
80779;SHT30;70170;47.856;10.956;2023-08-06T11:07:37;11.78;98.02
80779;SHT30;70170;47.856;10.956;2023-08-06T11:10:07;11.78;98.78
80779;SHT30;70170;47.856;10.956;2023-08-06T11:12:34;11.81;97.62
80779;SHT30;70170;47.856;10.956;2023-08-06T11:15:00;11.95;97.64
80779;SHT30;70170;47.856;10.956;2023-08-06T11:17:28;12.01;97.74
80779;SHT30;70170;47.856;10.956;2023-08-06T11:19:53;12.15;98.47
80779;SHT30;70170;47.856;10.956;2023-08-06T11:22:22;12.26;98.61
80779;SHT30;70170;47.856;10.956;2023-08-06T11:24:48;12.40;97.32
80779;SHT30;70170;47.856;10.956;2023-08-06T11:27:14;12.65;97.20
80779;SHT30;70170;47.856;10.956;2023-08-06T11:29:43;12.65;97.03
80779;SHT30;70170;47.856;10.956;2023-08-06T11:32:10;12.46;96.32
80779;SHT30;70170;47.856;10.956;2023-08-06T11:34:36;12.35;97.09
80779;SHT30;70170;47.856;10.956;2023-08-06T11:37:05;12.29;98.09
80779;SHT30;70170;47.856;10.956;2023-08-06T11:39:38;12.30;97.29
80779;SHT30;70170;47.856;10.956;2023-08-06T11:42:05;12.21;97.10
80779;SHT30;70170;47.856;10.956;2023-08-06T11:44:32;12.35;96.97
80779;SHT30;70170;47.856;10.956;2023-08-06T11:47:02;12.49;95.64
80779;SHT30;70170;47.856;10.956;2023-08-06T11:49:44;12.81;96.78
80779;SHT30;70170;47.856;10.956;2023-08-06T11:52:19;12.99;94.57
80779;SHT30;70170;47.856;10.956;2023-08-06T11:55:07;13.15;93.39
80779;SHT30;70170;47.856;10.956;2023-08-06T11:57:36;13.36;93.76
80779;SHT30;70170;47.856;10.956;2023-08-06T12:00:06;13.67;93.11
80779;SHT30;70170;47.856;10.956;2023-08-06T12:02:33;13.67;92.62
80779;SHT30;70170;47.856;10.956;2023-08-06T12:05:11;14.05;91.57
80779;SHT30;70170;47.856;10.956;2023-08-06T12:07:38;14.09;88.64
80779;SHT30;70170;47.856;10.956;2023-08-06T12:10:04;14.16;89.38
80779;SHT30;70170;47.856;10.956;2023-08-06T12:12:30;14.04;89.79
80779;SHT30;70170;47.856;10.956;2023-08-06T12:14:55;14.26;89.72
80779;SHT30;70170;47.856;10.956;2023-08-06T12:17:22;13.84;87.91
80779;SHT30;70170;47.856;10.956;2023-08-06T12:19:47;14.01;87.91
80779;SHT30;70170;47.856;10.956;2023-08-06T12:22:13;14.09;88.16
80779;SHT30;70170;47.856;10.956;2023-08-06T12:24:40;14.08;88.63
80779;SHT30;70170;47.856;10.956;2023-08-06T12:27:05;14.08;86.99
80779;SHT30;70170;47.856;10.956;2023-08-06T12:29:31;13.92;87.19
80779;SHT30;70170;47.856;10.956;2023-08-06T12:31:56;13.53;88.48
80779;SHT30;70170;47.856;10.956;2023-08-06T12:34:22;13.47;89.33
80779;SHT30;70170;47.856;10.956;2023-08-06T12:36:47;13.29;90.26
80779;SHT30;70170;47.856;10.956;2023-08-06T12:39:12;13.14;92.69
80779;SHT30;70170;47.856;10.956;2023-08-06T12:41:38;12.81;94.22
80779;SHT30;70170;47.856;10.956;2023-08-06T12:44:03;12.43;94.55
80779;SHT30;70170;47.856;10.956;2023-08-06T12:46:29;12.39;96.63
80779;SHT30;70170;47.856;10.956;2023-08-06T12:48:54;12.19;97.80
80779;SHT30;70170;47.856;10.956;2023-08-06T12:51:19;11.95;97.38
80779;SHT30;70170;47.856;10.956;2023-08-06T12:53:44;11.89;98.88
80779;SHT30;70170;47.856;10.956;2023-08-06T12:56:10;11.78;98.71
80779;SHT30;70170;47.856;10.956;2023-08-06T12:58:35;11.71;99.24
80779;SHT30;70170;47.856;10.956;2023-08-06T13:01:00;11.59;99.99
80779;SHT30;70170;47.856;10.956;2023-08-06T13:03:26;11.42;99.25
80779;SHT30;70170;47.856;10.956;2023-08-06T13:05:51;11.36;99.99
80779;SHT30;70170;47.856;10.956;2023-08-06T13:08:17;11.40;99.99
80779;SHT30;70170;47.856;10.956;2023-08-06T13:10:42;11.36;99.99
80779;SHT30;70170;47.856;10.956;2023-08-06T13:13:08;11.32;99.99
80779;SHT30;70170;47.856;10.956;2023-08-06T13:15:35;11.32;99.99
80779;SHT30;70170;47.856;10.956;2023-08-06T13:18:00;11.36;99.99
80779;SHT30;70170;47.856;10.956;2023-08-06T13:20:26;11.44;99.99
80779;SHT30;70170;47.856;10.956;2023-08-06T13:22:52;11.54;99.99
80779;SHT30;70170;47.856;10.956;2023-08-06T13:25:19;11.60;99.31
80779;SHT30;70170;47.856;10.956;2023-08-06T13:27:44;11.71;99.99
80779;SHT30;70170;47.856;10.956;2023-08-06T13:30:11;11.73;99.47
80779;SHT30;70170;47.856;10.956;2023-08-06T13:32:36;11.69;99.02
80779;SHT30;70170;47.856;10.956;2023-08-06T13:35:03;11.67;99.24
80779;SHT30;70170;47.856;10.956;2023-08-06T13:37:29;11.80;98.97
80779;SHT30;70170;47.856;10.956;2023-08-06T13:39:54;11.91;98.86
80779;SHT30;70170;47.856;10.956;2023-08-06T13:42:19;11.84;98.68
80779;SHT30;70170;47.856;10.956;2023-08-06T13:44:45;11.77;98.56
80779;SHT30;70170;47.856;10.956;2023-08-06T13:47:10;11.82;99.36
80779;SHT30;70170;47.856;10.956;2023-08-06T13:49:35;11.85;99.29
80779;SHT30;70170;47.856;10.956;2023-08-06T13:52:01;11.91;99.14
80779;SHT30;70170;47.856;10.956;2023-08-06T13:54:26;11.84;98.44
80779;SHT30;70170;47.856;10.956;2023-08-06T13:56:51;11.81;98.50
80779;SHT30;70170;47.856;10.956;2023-08-06T13:59:18;11.74;98.80
80779;SHT30;70170;47.856;10.956;2023-08-06T14:01:45;11.70;98.42
80779;SHT30;70170;47.856;10.956;2023-08-06T14:04:10;11.73;99.52
80779;SHT30;70170;47.856;10.956;2023-08-06T14:06:35;11.71;99.45
80779;SHT30;70170;47.856;10.956;2023-08-06T14:09:01;11.75;99.27
80779;SHT30;70170;47.856;10.956;2023-08-06T14:11:27;11.88;99.30
80779;SHT30;70170;47.856;10.956;2023-08-06T14:13:52;12.14;99.46
80779;SHT30;70170;47.856;10.956;2023-08-06T14:16:17;12.14;98.81
80779;SHT30;70170;47.856;10.956;2023-08-06T14:18:43;12.19;98.74
80779;SHT30;70170;47.856;10.956;2023-08-06T14:21:08;12.18;98.81
80779;SHT30;70170;47.856;10.956;2023-08-06T14:23:34;11.99;99.19
80779;SHT30;70170;47.856;10.956;2023-08-06T14:25:59;12.01;99.34
80779;SHT30;70170;47.856;10.956;2023-08-06T14:28:24;12.04;98.93
80779;SHT30;70170;47.856;10.956;2023-08-06T14:30:50;12.05;99.58
80779;SHT30;70170;47.856;10.956;2023-08-06T14:33:15;11.97;98.66
80779;SHT30;70170;47.856;10.956;2023-08-06T14:35:40;11.89;99.23
80779;SHT30;70170;47.856;10.956;2023-08-06T14:38:05;11.75;99.24
80779;SHT30;70170;47.856;10.956;2023-08-06T14:40:31;11.74;99.99
80779;SHT30;70170;47.856;10.956;2023-08-06T14:43:00;11.69;99.46
80779;SHT30;70170;47.856;10.956;2023-08-06T14:45:26;11.75;99.65
80779;SHT30;70170;47.856;10.956;2023-08-06T14:47:52;11.81;99.25
80779;SHT30;70170;47.856;10.956;2023-08-06T14:50:17;11.92;99.27
80779;SHT30;70170;47.856;10.956;2023-08-06T14:52:42;12.06;98.37
80779;SHT30;70170;47.856;10.956;2023-08-06T14:55:08;12.11;97.80
80779;SHT30;70170;47.856;10.956;2023-08-06T14:57:33;12.19;96.74
80779;SHT30;70170;47.856;10.956;2023-08-06T14:59:58;12.28;97.43
80779;SHT30;70170;47.856;10.956;2023-08-06T15:02:23;12.22;97.03
80779;SHT30;70170;47.856;10.956;2023-08-06T15:04:50;12.24;97.61
80779;SHT30;70170;47.856;10.956;2023-08-06T15:07:15;12.18;96.25
80779;SHT30;70170;47.856;10.956;2023-08-06T15:09:41;12.11;96.24
80779;SHT30;70170;47.856;10.956;2023-08-06T15:12:06;12.11;96.88
80779;SHT30;70170;47.856;10.956;2023-08-06T15:14:32;11.99;96.37
80779;SHT30;70170;47.856;10.956;2023-08-06T15:16:57;11.84;97.78
80779;SHT30;70170;47.856;10.956;2023-08-06T15:19:24;11.81;98.26
80779;SHT30;70170;47.856;10.956;2023-08-06T15:21:49;11.71;96.84